createdAt,value
2018-04-28T00:00:32.946Z,94561.19
2018-04-28T00:03:37.843Z,94561.02
2018-04-28T00:06:41.095Z,94567.95
2018-04-28T00:09:45.138Z,94570.40
2018-04-28T00:12:57.366Z,94567.11
2018-04-28T00:16:04.870Z,94578.38
2018-04-28T00:19:08.176Z,94573.61
2018-04-28T00:22:24.030Z,94575.00
2018-04-28T00:25:29.549Z,94579.88
2018-04-28T00:32:10.475Z,94584.44
2018-04-28T00:35:14.562Z,94589.13
2018-04-28T00:38:18.587Z,94590.92
2018-04-28T00:41:22.647Z,94589.42
2018-04-28T00:44:36.526Z,94587.36
2018-04-28T00:47:41.142Z,94590.01
2018-04-28T00:50:50.809Z,94583.20
2018-04-28T00:54:16.114Z,94590.54
2018-04-28T01:01:21.831Z,94593.34
2018-04-28T01:04:32.711Z,94587.13
2018-04-28T01:07:35.968Z,94597.13
2018-04-28T01:10:39.247Z,94595.46
2018-04-28T01:13:43.282Z,94600.94
2018-04-28T01:16:55.549Z,94606.33
2018-04-28T01:20:00.650Z,94609.98
2018-04-28T01:23:07.608Z,94607.98
2018-04-28T01:26:34.987Z,94615.36
2018-04-28T01:30:04.942Z,94621.97
2018-04-28T01:33:17.632Z,94623.27
2018-04-28T01:40:14.857Z,94624.81
2018-04-28T01:43:38.573Z,94624.73
2018-04-28T01:46:47.197Z,94629.94
2018-04-28T01:50:08.816Z,94630.69
2018-04-28T01:53:12.083Z,94628.97
2018-04-28T01:56:23.939Z,94639.64
2018-04-28T01:59:31.679Z,94646.16
2018-04-28T02:02:41.359Z,94646.98
2018-04-28T02:09:32.820Z,94651.59
2018-04-28T02:12:39.794Z,94650.40
2018-04-28T02:15:45.121Z,94646.21
2018-04-28T02:19:01.750Z,94646.36
2018-04-28T02:25:46.650Z,94646.83
2018-04-28T02:29:07.359Z,94651.74
2018-04-28T02:32:13.219Z,94657.53
2018-04-28T02:35:24.110Z,94661.04
2018-04-28T02:38:36.092Z,94666.13
2018-04-28T02:41:47.052Z,94666.09
2018-04-28T02:45:03.936Z,94678.34
2018-04-28T02:48:11.651Z,94677.08
2018-04-28T02:54:52.317Z,94681.33
2018-04-28T02:58:01.683Z,94682.59
2018-04-28T03:04:37.647Z,94689.86
2018-04-28T03:07:51.371Z,94685.95
2018-04-28T03:10:59.110Z,94697.23
2018-04-28T03:14:02.394Z,94695.63
2018-04-28T03:21:00.301Z,94705.77
2018-04-28T03:24:08.037Z,94712.08
2018-04-28T03:38:05.213Z,94718.80
2018-04-28T03:44:53.222Z,94725.54
2018-04-28T03:51:38.210Z,94725.14
2018-04-28T03:54:51.014Z,94725.78
2018-04-28T03:58:12.069Z,94725.13
2018-04-28T04:01:33.239Z,94738.41
2018-04-28T04:04:38.387Z,94739.91
2018-04-28T04:07:45.257Z,94745.33
2018-04-28T04:18:41.773Z,94752.77
2018-04-28T04:29:51.326Z,94763.09
2018-04-28T04:36:33.397Z,94763.45
2018-04-28T04:39:49.358Z,94767.52
2018-04-28T04:42:59.365Z,94778.19
2018-04-28T04:53:42.239Z,94780.86
2018-04-28T04:57:06.145Z,94783.64
2018-04-28T05:04:15.178Z,94789.73
2018-04-28T05:07:34.182Z,94799.12
2018-04-28T05:10:55.035Z,94793.58
2018-04-28T05:13:59.110Z,94803.56
2018-04-28T05:21:14.797Z,94804.56
2018-04-28T05:24:31.093Z,94803.56
2018-04-28T05:31:41.377Z,94821.55
2018-04-28T05:34:58.432Z,94824.23
2018-04-28T05:42:02.915Z,94827.73
2018-04-28T05:45:19.848Z,94836.25
2018-04-28T05:55:49.930Z,94831.23
2018-04-28T06:03:15.130Z,94829.39
2018-04-28T06:10:16.183Z,94834.72
2018-04-28T06:17:21.038Z,94838.05
2018-04-28T06:23:58.845Z,94843.81
2018-04-28T06:27:02.173Z,94836.27
2018-04-28T06:30:05.466Z,94837.19
2018-04-28T06:33:08.904Z,94834.02
2018-04-28T06:36:12.153Z,94832.71
2018-04-28T06:39:15.431Z,94833.41
2018-04-28T06:42:19.511Z,94831.71
2018-04-28T06:45:22.771Z,94832.91
2018-04-28T06:48:26.029Z,94828.98
2018-04-28T06:51:29.341Z,94828.09
2018-04-28T06:54:32.609Z,94828.44
2018-04-28T06:57:35.863Z,94816.56
2018-04-28T07:00:39.283Z,94825.14
2018-04-28T07:03:43.326Z,94818.54
2018-04-28T07:06:46.582Z,94816.83
2018-04-28T07:09:50.834Z,94817.58
2018-04-28T07:12:54.323Z,94822.17
2018-04-28T07:15:58.349Z,94816.18
2018-04-28T07:19:01.644Z,94814.89
2018-04-28T07:22:04.905Z,94811.26
2018-04-28T07:25:08.243Z,94809.55
2018-04-28T07:28:11.544Z,94806.59
2018-04-28T07:31:14.818Z,94809.33
2018-04-28T07:34:18.846Z,94804.42
2018-04-28T07:37:22.124Z,94803.37
2018-04-28T07:40:25.471Z,94807.64
2018-04-28T07:43:28.770Z,94807.72
2018-04-28T07:46:32.037Z,94806.89
2018-04-28T07:49:36.132Z,94807.86
2018-04-28T07:52:39.563Z,94797.67
2018-04-28T07:55:42.834Z,94801.70
2018-04-28T07:58:46.864Z,94798.78
2018-04-28T08:01:50.902Z,94795.56
2018-04-28T08:04:54.190Z,94794.03
2018-04-28T08:07:59.129Z,94792.38
2018-04-28T08:11:03.155Z,94786.88
2018-04-28T08:14:06.419Z,94785.38
2018-04-28T08:17:10.439Z,94777.83
2018-04-28T08:20:13.699Z,94778.78
2018-04-28T08:23:16.958Z,94782.10
2018-04-28T08:26:20.216Z,94770.96
2018-04-28T08:29:23.481Z,94783.09
2018-04-28T08:32:26.757Z,94769.44
2018-04-28T08:35:30.063Z,94773.62
2018-04-28T08:38:33.326Z,94768.62
2018-04-28T08:41:37.344Z,94768.47
2018-04-28T08:44:41.413Z,94767.51
2018-04-28T08:47:45.813Z,94772.87
2018-04-28T08:50:49.190Z,94770.58
2018-04-28T08:53:53.214Z,94775.58
2018-04-28T08:56:56.463Z,94764.83
2018-04-28T09:00:17.585Z,94753.40
2018-04-28T09:03:20.871Z,94751.19
2018-04-28T09:06:24.173Z,94742.48
2018-04-28T09:09:27.441Z,94734.36
2018-04-28T09:12:30.845Z,94738.66
2018-04-28T09:15:34.143Z,94738.23
2018-04-28T09:18:37.424Z,94738.47
2018-04-28T09:21:40.671Z,94734.05
2018-04-28T09:24:44.046Z,94732.07
2018-04-28T09:27:47.301Z,94723.20
2018-04-28T09:30:51.328Z,94724.23
2018-04-28T09:33:55.398Z,94716.27
2018-04-28T09:36:58.667Z,94713.97
2018-04-28T09:40:03.662Z,94706.24
2018-04-28T09:43:07.665Z,94711.46
2018-04-28T09:46:11.781Z,94708.66
2018-04-28T09:49:15.842Z,94708.41
2018-04-28T09:52:19.482Z,94712.75
2018-04-28T09:55:22.753Z,94705.63
2018-04-28T09:58:26.754Z,94695.85
2018-04-28T10:01:35.334Z,94692.72
2018-04-28T10:04:39.367Z,94689.93
2018-04-28T10:07:42.699Z,94677.56
2018-04-28T10:10:46.016Z,94671.80
2018-04-28T10:13:49.363Z,94669.20
2018-04-28T10:16:53.547Z,94656.09
2018-04-28T10:19:57.616Z,94654.66
2018-04-28T10:23:01.441Z,94659.53
2018-04-28T10:26:04.803Z,94654.66
2018-04-28T10:29:08.871Z,94646.00
2018-04-28T10:32:12.139Z,94646.59
2018-04-28T10:35:15.433Z,94639.23
2018-04-28T10:38:18.692Z,94633.11
2018-04-28T10:41:21.978Z,94632.61
2018-04-28T10:44:25.262Z,94626.98
2018-04-28T10:47:28.678Z,94622.93
2018-04-28T10:50:31.884Z,94619.07
2018-04-28T10:53:35.236Z,94611.20
2018-04-28T10:56:38.413Z,94609.65
2018-04-28T10:59:41.682Z,94594.62
2018-04-28T11:02:45.701Z,94592.20
2018-04-28T11:05:50.686Z,94597.25
2018-04-28T11:08:53.985Z,94583.69
2018-04-28T11:11:57.251Z,94582.70
2018-04-28T11:15:01.353Z,94580.78
2018-04-28T11:18:04.657Z,94579.24
2018-04-28T11:21:08.693Z,94572.30
2018-04-28T11:24:11.950Z,94577.36
2018-04-28T11:27:15.236Z,94561.75
2018-04-28T11:30:18.506Z,94565.97
2018-04-28T11:33:21.772Z,94553.66
2018-04-28T11:36:25.030Z,94552.67
2018-04-28T11:39:28.289Z,94554.43
2018-04-28T11:42:31.660Z,94546.13
2018-04-28T11:45:34.931Z,94542.39
2018-04-28T11:48:38.206Z,94535.80
2018-04-28T11:51:41.551Z,94536.20
2018-04-28T11:54:44.787Z,94525.73
2018-04-28T11:57:48.050Z,94522.17
2018-04-28T12:00:51.348Z,94525.23
2018-04-28T12:03:54.641Z,94519.87
2018-04-28T12:06:58.178Z,94516.38
2018-04-28T12:10:02.019Z,94519.91
2018-04-28T12:13:08.209Z,94513.48
2018-04-28T12:16:12.239Z,94510.38
2018-04-28T12:19:16.277Z,94506.29
2018-04-28T12:22:19.529Z,94504.62
2018-04-28T12:25:23.648Z,94500.34
2018-04-28T12:28:27.679Z,94490.00
2018-04-28T12:31:30.952Z,94485.55
2018-04-28T12:34:34.970Z,94480.13
2018-04-28T12:37:38.221Z,94482.50
2018-04-28T12:40:41.540Z,94472.28
2018-04-28T12:43:44.815Z,94477.67
2018-04-28T12:46:48.072Z,94469.79
2018-04-28T12:49:52.094Z,94468.02
2018-04-28T12:52:56.115Z,94458.59
2018-04-28T12:55:59.405Z,94460.77
2018-04-28T12:59:03.433Z,94454.73
2018-04-28T13:02:06.705Z,94454.19
2018-04-28T13:05:10.736Z,94455.75
2018-04-28T13:08:14.781Z,94446.71
2018-04-28T13:11:18.087Z,94442.53
2018-04-28T13:14:21.353Z,94445.06
2018-04-28T13:17:24.723Z,94448.12
2018-04-28T13:20:28.233Z,94431.20
2018-04-28T13:23:32.262Z,94428.09
2018-04-28T13:26:36.297Z,94423.66
2018-04-28T13:29:39.580Z,94425.61
2018-04-28T13:32:42.841Z,94420.17
2018-04-28T13:35:46.269Z,94426.77
2018-04-28T13:38:50.292Z,94422.14
2018-04-28T13:41:53.586Z,94413.03
2018-04-28T13:44:57.609Z,94406.00
2018-04-28T13:48:00.872Z,94402.55
2018-04-28T13:51:04.170Z,94398.09
2018-04-28T13:54:07.421Z,94395.56
2018-04-28T13:57:10.704Z,94390.38
2018-04-28T14:00:13.989Z,94389.54
2018-04-28T14:03:18.023Z,94386.86
2018-04-28T14:06:21.304Z,94386.69
2018-04-28T14:09:24.625Z,94385.48
2018-04-28T14:12:28.683Z,94381.20
2018-04-28T14:15:31.941Z,94379.40
2018-04-28T14:18:35.935Z,94374.92
2018-04-28T14:21:39.301Z,94373.48
2018-04-28T14:24:42.559Z,94374.73
2018-04-28T14:27:46.271Z,94372.69
2018-04-28T14:30:49.573Z,94362.70
2018-04-28T14:33:52.836Z,94360.72
2018-04-28T14:36:56.299Z,94363.86
2018-04-28T14:39:59.677Z,94353.09
2018-04-28T14:43:02.972Z,94348.60
2018-04-28T14:46:06.495Z,94356.28
2018-04-28T14:49:10.000Z,94357.08
2018-04-28T14:52:14.553Z,94351.36
2018-04-28T14:55:17.861Z,94344.63
2018-04-28T14:58:21.885Z,94349.41
2018-04-28T15:01:25.293Z,94351.73
2018-04-28T15:04:28.560Z,94344.86
2018-04-28T15:07:31.810Z,94335.38
2018-04-28T15:10:35.083Z,94330.98
2018-04-28T15:13:38.345Z,94329.80
2018-04-28T15:16:45.038Z,94319.84
2018-04-28T15:19:49.180Z,94330.88
2018-04-28T15:22:52.530Z,94328.34
2018-04-28T15:25:57.029Z,94327.41
2018-04-28T15:29:01.138Z,94337.39
2018-04-28T15:32:04.397Z,94333.45
2018-04-28T15:35:09.252Z,94332.91
2018-04-28T15:38:13.315Z,94325.95
2018-04-28T15:41:17.243Z,94323.46
2018-04-28T15:44:20.484Z,94324.97
2018-04-28T15:47:24.608Z,94326.67
2018-04-28T15:50:27.886Z,94318.71
2018-04-28T15:53:31.289Z,94319.50
2018-04-28T15:56:35.311Z,94318.44
2018-04-28T15:59:39.437Z,94319.89
2018-04-28T16:02:43.782Z,94313.35
2018-04-28T16:05:47.920Z,94313.91
2018-04-28T16:08:51.258Z,94309.63
2018-04-28T16:11:54.585Z,94311.84
2018-04-28T16:14:57.885Z,94310.91
2018-04-28T16:18:01.142Z,94313.98
2018-04-28T16:21:04.451Z,94307.49
2018-04-28T16:24:07.704Z,94302.84
2018-04-28T16:27:11.034Z,94302.84
2018-04-28T16:30:14.993Z,94304.89
2018-04-28T16:33:18.283Z,94301.38
2018-04-28T16:36:21.606Z,94308.14
2018-04-28T16:39:24.927Z,94301.17
2018-04-28T16:42:28.170Z,94307.70
2018-04-28T16:45:32.195Z,94311.38
2018-04-28T16:48:35.479Z,94304.16
2018-04-28T16:51:39.733Z,94307.73
2018-04-28T16:54:43.007Z,94303.91
2018-04-28T16:57:46.285Z,94301.19
2018-04-28T17:00:50.341Z,94302.81
2018-04-28T17:03:53.641Z,94310.70
2018-04-28T17:06:56.956Z,94304.06
2018-04-28T17:10:00.983Z,94305.47
2018-04-28T17:13:04.241Z,94304.45
2018-04-28T17:16:07.524Z,94306.45
2018-04-28T17:19:11.546Z,94310.06
2018-04-28T17:22:14.852Z,94314.10
2018-04-28T17:25:18.135Z,94311.62
2018-04-28T17:28:22.167Z,94308.27
2018-04-28T17:31:25.755Z,94312.94
2018-04-28T17:34:29.765Z,94317.27
2018-04-28T17:37:33.838Z,94320.11
2018-04-28T17:40:37.077Z,94322.30
2018-04-28T17:43:41.102Z,94325.02
2018-04-28T17:46:45.132Z,94320.38
2018-04-28T17:49:48.386Z,94315.55
2018-04-28T17:52:51.779Z,94317.98
2018-04-28T17:55:55.039Z,94325.06
2018-04-28T17:58:58.325Z,94328.52
2018-04-28T18:02:01.594Z,94327.57
2018-04-28T18:05:05.613Z,94324.98
2018-04-28T18:08:09.676Z,94333.11
2018-04-28T18:11:12.929Z,94332.08
2018-04-28T18:14:16.977Z,94332.94
2018-04-28T18:17:20.253Z,94329.30
2018-04-28T18:20:24.288Z,94332.72
2018-04-28T18:23:27.626Z,94335.80
2018-04-28T18:26:30.988Z,94332.98
2018-04-28T18:29:34.999Z,94340.77
2018-04-28T18:32:38.294Z,94335.74
2018-04-28T18:35:41.790Z,94340.02
2018-04-28T18:38:45.096Z,94340.48
2018-04-28T18:41:48.391Z,94345.55
2018-04-28T18:44:51.726Z,94347.89
2018-04-28T18:47:55.013Z,94346.96
2018-04-28T18:50:58.254Z,94344.14
2018-04-28T18:54:02.284Z,94350.84
2018-04-28T18:57:05.538Z,94354.69
2018-04-28T19:00:08.929Z,94359.70
2018-04-28T19:03:12.973Z,94353.37
2018-04-28T19:06:16.260Z,94356.45
2018-04-28T19:09:19.523Z,94362.41
2018-04-28T19:12:22.769Z,94356.30
2018-04-28T19:15:26.809Z,94359.52
2018-04-28T19:18:30.094Z,94361.06
2018-04-28T19:21:34.113Z,94362.44
2018-04-28T19:24:37.465Z,94360.90
2018-04-28T19:27:40.724Z,94363.02
2018-04-28T19:30:43.990Z,94358.63
2018-04-28T19:33:47.299Z,94367.02
2018-04-28T19:36:51.354Z,94368.19
2018-04-28T19:39:54.640Z,94372.01
2018-04-28T19:42:59.613Z,94364.73
2018-04-28T19:46:02.835Z,94363.77
2018-04-28T19:49:06.292Z,94369.29
2018-04-28T19:52:09.838Z,94365.64
2018-04-28T19:55:13.087Z,94374.59
2018-04-28T19:58:16.340Z,94373.63
2018-04-28T20:01:20.367Z,94375.89
2018-04-28T20:04:24.392Z,94372.05
2018-04-28T20:07:27.705Z,94368.58
2018-04-28T20:10:31.054Z,94367.59
2018-04-28T20:13:34.379Z,94366.63
2018-04-28T20:16:37.669Z,94367.17
2018-04-28T20:19:41.796Z,94364.05
2018-04-28T20:23:02.957Z,94368.25
2018-04-28T20:26:06.235Z,94365.39
2018-04-28T20:29:09.511Z,94361.52
2018-04-28T20:32:12.781Z,94365.31
2018-04-28T20:35:16.875Z,94362.01
2018-04-28T20:38:20.147Z,94365.03
2018-04-28T20:41:23.404Z,94360.82
2018-04-28T20:44:27.422Z,94355.81
2018-04-28T20:47:31.453Z,94363.59
2018-04-28T20:50:34.756Z,94365.43
2018-04-28T20:53:38.035Z,94361.42
2018-04-28T20:56:41.357Z,94369.78
2018-04-28T20:59:44.662Z,94372.78
2018-04-28T21:02:47.918Z,94367.95
2018-04-28T21:05:51.963Z,94358.91
2018-04-28T21:08:55.291Z,94364.83
2018-04-28T21:11:58.547Z,94366.07
2018-04-28T21:15:01.844Z,94359.88
2018-04-28T21:18:05.869Z,94357.39
2018-04-28T21:21:09.199Z,94359.80
2018-04-28T21:24:13.152Z,94365.26
2018-04-28T21:27:16.400Z,94360.01
2018-04-28T21:30:19.682Z,94360.73
2018-04-28T21:33:22.945Z,94351.81
2018-04-28T21:36:26.196Z,94360.05
2018-04-28T21:39:29.705Z,94351.69
2018-04-28T21:42:33.043Z,94352.92
2018-04-28T21:45:37.158Z,94356.05
2018-04-28T21:48:40.448Z,94346.14
2018-04-28T21:51:43.705Z,94345.75
2018-04-28T21:54:46.968Z,94347.42
2018-04-28T21:57:50.973Z,94351.53
2018-04-28T22:00:55.064Z,94345.94
2018-04-28T22:03:58.329Z,94348.88
2018-04-28T22:07:01.582Z,94344.90
2018-04-28T22:10:05.615Z,94342.52
2018-04-28T22:13:09.633Z,94339.45
2018-04-28T22:16:13.654Z,94335.95
2018-04-28T22:19:16.919Z,94346.91
2018-04-28T22:22:20.215Z,94346.97
2018-04-28T22:25:27.519Z,94342.50
2018-04-28T22:28:31.325Z,94350.41
2018-04-28T22:31:35.358Z,94345.36
2018-04-28T22:34:40.877Z,94342.97
2018-04-28T22:37:44.122Z,94348.77
2018-04-28T22:40:47.386Z,94346.09
2018-04-28T22:43:51.420Z,94349.78
2018-04-28T22:46:54.670Z,94343.78
2018-04-28T22:49:57.927Z,94339.69
2018-04-28T22:53:01.197Z,94340.98
2018-04-28T22:56:05.222Z,94342.31
2018-04-28T22:59:09.261Z,94344.20
2018-04-28T23:02:12.513Z,94335.57
2018-04-28T23:05:15.786Z,94332.91
2018-04-28T23:08:19.037Z,94334.91
2018-04-28T23:11:22.304Z,94335.50
2018-04-28T23:14:25.601Z,94330.89
2018-04-28T23:17:28.855Z,94329.84
2018-04-28T23:20:32.124Z,94325.56
2018-04-28T23:23:36.147Z,94316.59
2018-04-28T23:26:39.403Z,94314.48
2018-04-28T23:29:42.743Z,94310.03
2018-04-28T23:32:46.772Z,94309.08
2018-04-28T23:35:50.054Z,94307.53
2018-04-28T23:38:54.070Z,94311.20
2018-04-28T23:41:57.327Z,94309.06
2018-04-28T23:45:00.670Z,94307.57
2018-04-28T23:48:03.981Z,94306.75
2018-04-28T23:51:07.263Z,94301.26
2018-04-28T23:54:11.295Z,94301.44
2018-04-28T23:57:14.533Z,94295.82
